createdAt,value
2018-01-01T00:01:41.441Z,88.70
2018-01-01T00:06:49.733Z,88.20
2018-01-01T00:11:58.426Z,88.20
2018-01-01T00:17:03.924Z,88.40
2018-01-01T00:22:10.148Z,88.20
2018-01-01T00:32:26.547Z,87.90
2018-01-01T00:37:31.290Z,88.50
2018-01-01T00:42:37.042Z,88.50
2018-01-01T00:47:46.237Z,88.70
2018-01-01T00:52:59.302Z,88.30
2018-01-01T00:58:02.967Z,88.30
2018-01-01T01:08:43.499Z,88.30
2018-01-01T01:13:48.748Z,88.50
2018-01-01T01:18:55.512Z,88.30
2018-01-01T01:24:08.016Z,88.30
2018-01-01T01:29:12.235Z,88.10
2018-01-01T01:34:17.401Z,87.90
2018-01-01T01:39:23.678Z,88.10
2018-01-01T01:44:31.460Z,87.80
2018-01-01T01:49:37.845Z,88.50
2018-01-01T01:54:43.106Z,88.50
2018-01-01T01:59:49.652Z,88.30
2018-01-01T02:10:07.315Z,89.00
2018-01-01T02:15:12.998Z,89.20
2018-01-01T02:20:22.642Z,89.30
2018-01-01T02:25:34.682Z,89.40
2018-01-01T02:30:42.782Z,89.60
2018-01-01T02:35:51.436Z,89.80
2018-01-01T02:40:55.931Z,89.80
2018-01-01T02:51:12.847Z,89.70
2018-01-01T03:01:24.690Z,89.70
2018-01-01T03:06:35.894Z,89.70
2018-01-01T03:11:40.730Z,89.90
2018-01-01T03:16:48.692Z,90.00
2018-01-01T03:21:52.898Z,89.70
2018-01-01T03:27:04.583Z,89.80
2018-01-01T03:32:12.226Z,89.70
2018-01-01T03:37:22.020Z,89.70
2018-01-01T03:42:28.107Z,89.70
2018-01-01T03:47:40.134Z,89.70
2018-01-01T03:52:45.576Z,90.00
2018-01-01T03:57:55.453Z,89.90
2018-01-01T04:08:18.716Z,89.50
2018-01-01T04:13:27.694Z,89.20
2018-01-01T04:24:00.217Z,89.70
2018-01-01T04:29:06.835Z,89.80
2018-01-01T04:34:15.959Z,89.70
2018-01-01T04:39:21.144Z,90.00
2018-01-01T04:44:34.361Z,90.00
2018-01-01T04:49:43.360Z,89.90
2018-01-01T04:54:50.375Z,90.00
2018-01-01T04:59:56.619Z,89.80
2018-01-01T05:05:06.406Z,90.10
2018-01-01T05:10:21.647Z,89.50
2018-01-01T05:15:35.451Z,89.70
2018-01-01T05:20:42.356Z,90.00
2018-01-01T05:25:53.999Z,89.40
2018-01-01T05:30:57.657Z,89.60
2018-01-01T05:36:02.824Z,89.50
2018-01-01T05:41:10.108Z,90.00
2018-01-01T05:46:16.896Z,90.00
2018-01-01T05:51:25.754Z,90.90
2018-01-01T06:01:40.877Z,91.70
2018-01-01T06:12:18.039Z,91.90
2018-01-01T06:17:33.035Z,91.70
2018-01-01T06:22:43.208Z,91.70
2018-01-01T06:27:47.770Z,91.60
2018-01-01T06:32:58.810Z,91.70
2018-01-01T06:38:06.622Z,91.60
2018-01-01T06:43:15.856Z,91.30
2018-01-01T06:48:28.118Z,91.40
2018-01-01T06:53:34.104Z,91.40
2018-01-01T06:58:36.762Z,91.30
2018-01-01T07:03:39.307Z,91.20
2018-01-01T07:08:42.601Z,90.90
2018-01-01T07:13:45.906Z,90.70
2018-01-01T07:18:48.446Z,90.70
2018-01-01T07:23:51.749Z,90.40
2018-01-01T07:28:54.265Z,90.40
2018-01-01T07:33:56.805Z,90.30
2018-01-01T07:38:59.346Z,90.00
2018-01-01T07:44:08.109Z,89.70
2018-01-01T07:54:36.068Z,89.30
2018-01-01T07:59:40.860Z,89.00
2018-01-01T08:04:51.413Z,88.60
2018-01-01T08:09:55.621Z,88.40
2018-01-01T08:15:04.783Z,87.80
2018-01-01T08:20:10.158Z,87.40
2018-01-01T08:25:18.002Z,87.20
2018-01-01T08:30:29.259Z,86.90
2018-01-01T08:35:47.688Z,86.70
2018-01-01T08:40:58.650Z,86.50
2018-01-01T08:51:15.516Z,86.20
2018-01-01T08:56:21.881Z,86.00
2018-01-01T09:06:38.475Z,85.90
2018-01-01T09:11:44.211Z,85.40
2018-01-01T09:32:31.534Z,85.70
2018-01-01T09:42:59.222Z,85.90
2018-01-01T09:48:05.764Z,85.30
2018-01-01T09:53:14.079Z,85.00
2018-01-01T09:58:22.430Z,85.00
2018-01-01T10:03:32.566Z,84.90
2018-01-01T10:08:38.981Z,84.40
2018-01-01T10:13:44.558Z,84.10
2018-01-01T10:18:49.152Z,83.10
2018-01-01T10:23:51.778Z,83.20
2018-01-01T10:28:54.328Z,83.40
2018-01-01T10:33:56.858Z,83.00
2018-01-01T10:38:59.411Z,82.00
2018-01-01T10:44:01.966Z,82.80
2018-01-01T10:49:10.555Z,82.70
2018-01-01T10:54:17.026Z,81.50
2018-01-01T11:09:52.473Z,81.10
2018-01-01T11:15:03.423Z,81.00
2018-01-01T11:25:22.669Z,80.40
2018-01-01T11:30:27.519Z,80.20
2018-01-01T11:35:31.935Z,81.70
2018-01-01T11:40:39.984Z,80.30
2018-01-01T11:45:46.926Z,80.20
2018-01-01T11:50:55.832Z,79.60
2018-01-01T11:56:04.444Z,79.70
2018-01-01T12:01:08.689Z,79.70
2018-01-01T12:06:16.181Z,79.70
2018-01-01T12:11:22.700Z,79.10
2018-01-01T12:16:29.516Z,79.30
2018-01-01T12:21:38.032Z,78.30
2018-01-01T12:26:47.107Z,77.40
2018-01-01T12:31:52.105Z,78.40
2018-01-01T12:37:03.600Z,78.10
2018-01-01T12:42:06.807Z,78.10
2018-01-01T12:47:09.342Z,76.70
2018-01-01T12:52:18.419Z,76.20
2018-01-01T12:57:24.510Z,75.70
2018-01-01T13:02:31.362Z,76.60
2018-01-01T13:07:41.940Z,72.90
2018-01-01T13:12:48.660Z,72.70
2018-01-01T13:17:57.420Z,72.00
2018-01-01T13:23:03.769Z,71.60
2018-01-01T13:28:08.407Z,71.50
2018-01-01T13:33:18.944Z,71.70
2018-01-01T13:38:28.400Z,71.30
2018-01-01T13:43:37.717Z,71.90
2018-01-01T13:48:49.186Z,71.80
2018-01-01T13:59:07.364Z,71.20
2018-01-01T14:04:13.205Z,71.00
2018-01-01T14:09:21.278Z,69.70
2018-01-01T14:14:26.403Z,69.40
2018-01-01T14:19:37.445Z,68.90
2018-01-01T14:24:42.440Z,68.80
2018-01-01T14:29:49.817Z,68.30
2018-01-01T14:35:00.884Z,67.90
2018-01-01T14:40:13.382Z,68.90
2018-01-01T14:45:19.181Z,68.20
2018-01-01T14:50:29.133Z,69.10
2018-01-01T14:55:37.018Z,68.80
2018-01-01T15:00:44.230Z,69.70
2018-01-01T15:05:46.935Z,70.60
2018-01-01T15:10:50.241Z,72.60
2018-01-01T15:15:58.337Z,72.50
2018-01-01T15:21:05.474Z,73.50
2018-01-01T15:26:16.311Z,73.50
2018-01-01T15:31:28.635Z,73.80
2018-01-01T15:36:36.944Z,74.50
2018-01-01T15:41:41.753Z,75.00
2018-01-01T15:46:48.189Z,76.60
2018-01-01T15:51:53.404Z,76.40
2018-01-01T15:57:00.321Z,76.60
2018-01-01T16:07:23.524Z,75.70
2018-01-01T16:12:34.198Z,76.70
2018-01-01T16:17:39.472Z,77.20
2018-01-01T16:22:49.589Z,77.40
2018-01-01T16:28:01.299Z,77.50
2018-01-01T16:33:08.767Z,76.80
2018-01-01T16:38:18.460Z,77.20
2018-01-01T16:43:24.392Z,77.30
2018-01-01T16:48:26.934Z,77.60
2018-01-01T16:53:29.490Z,77.90
2018-01-01T16:58:32.023Z,77.90
2018-01-01T17:03:34.555Z,78.00
2018-01-01T17:08:37.114Z,77.80
2018-01-01T17:13:48.416Z,78.10
2018-01-01T17:18:53.958Z,78.20
2018-01-01T17:23:57.869Z,77.80
2018-01-01T17:29:02.548Z,77.90
2018-01-01T17:39:23.730Z,78.30
2018-01-01T17:44:31.665Z,78.30
2018-01-01T17:49:38.833Z,78.30
2018-01-01T17:54:44.408Z,78.30
2018-01-01T17:59:52.480Z,78.30
2018-01-01T18:05:01.429Z,78.30
2018-01-01T18:10:05.912Z,78.30
2018-01-01T18:15:12.129Z,78.70
2018-01-01T18:20:20.138Z,78.60
2018-01-01T18:25:24.976Z,78.40
2018-01-01T18:30:31.339Z,78.50
2018-01-01T18:35:43.251Z,78.40
2018-01-01T18:40:52.814Z,78.40
2018-01-01T18:45:59.961Z,78.40
2018-01-01T18:51:11.559Z,78.90
2018-01-01T18:56:14.123Z,79.20
2018-01-01T19:01:16.662Z,79.20
2018-01-01T19:06:19.212Z,79.40
2018-01-01T19:11:22.526Z,79.90
2018-01-01T19:16:25.082Z,80.00
2018-01-01T19:21:27.628Z,80.70
2018-01-01T19:26:30.932Z,80.50
2018-01-01T19:31:33.462Z,80.50
2018-01-01T19:36:36.190Z,80.60
2018-01-01T19:41:45.134Z,80.60
2018-01-01T19:46:49.047Z,80.50
2018-01-01T19:51:51.751Z,79.90
2018-01-01T19:56:54.285Z,80.40
2018-01-01T20:01:56.818Z,80.40
2018-01-01T20:06:59.357Z,80.50
2018-01-01T20:12:01.915Z,80.50
2018-01-01T20:17:04.451Z,80.80
2018-01-01T20:22:06.990Z,80.90
2018-01-01T20:27:09.534Z,81.10
2018-01-01T20:32:12.067Z,81.20
2018-01-01T20:37:14.604Z,81.40
2018-01-01T20:42:17.143Z,81.30
2018-01-01T20:47:19.670Z,81.50
2018-01-01T20:52:22.215Z,81.60
2018-01-01T20:57:24.746Z,81.70
2018-01-01T21:02:27.282Z,81.60
2018-01-01T21:07:29.814Z,82.00
2018-01-01T21:12:32.350Z,82.30
2018-01-01T21:17:34.891Z,82.50
2018-01-01T21:22:38.190Z,84.30
2018-01-01T21:27:40.738Z,84.10
2018-01-01T21:32:43.278Z,84.80
2018-01-01T21:37:45.806Z,84.10
2018-01-01T21:42:49.106Z,85.50
2018-01-01T21:47:51.668Z,85.50
2018-01-01T21:52:54.198Z,86.10
2018-01-01T21:57:56.724Z,86.40
2018-01-01T22:03:00.028Z,86.30
2018-01-01T22:08:02.558Z,86.20
2018-01-01T22:13:05.094Z,86.30
2018-01-01T22:18:07.641Z,86.30
2018-01-01T22:23:10.937Z,86.20
2018-01-01T22:28:13.477Z,85.90
2018-01-01T22:33:16.011Z,86.00
2018-01-01T22:38:18.542Z,86.30
2018-01-01T22:43:21.082Z,85.80
2018-01-01T22:48:23.642Z,86.10
2018-01-01T22:53:26.944Z,87.20
2018-01-01T22:58:30.263Z,86.90
2018-01-01T23:03:32.782Z,86.80
2018-01-01T23:08:35.318Z,86.50
2018-01-01T23:13:37.838Z,86.60
2018-01-01T23:18:40.378Z,87.30
2018-01-01T23:23:42.914Z,87.00
2018-01-01T23:28:45.450Z,86.30
2018-01-01T23:33:47.991Z,86.40
2018-01-01T23:38:50.517Z,86.40
2018-01-01T23:43:53.065Z,86.50
2018-01-01T23:48:56.358Z,87.00
2018-01-01T23:53:59.674Z,86.80
2018-01-01T23:59:02.975Z,87.20
